Time;durP1;ratioP1;P1;durP2;ratioP2;P2;SDS_P1;SDS_P2;PMS_P1;PMS_P2;Temp;Humidity;BMP_temperature;BMP_pressure;BME280_temperature;BME280_humidity;BME280_pressure;Samples;Min_cycle;Max_cycle;Signal;HPM_P1;HPM_P2
2023/10/22 00:00:42;;;;;;;4.78;0.30;;;13.40;99.90;;;;;;6134367;23;20448;-94
2023/10/22 00:03:08;;;;;;;4.27;0.40;;;13.30;99.90;;;;;;6132905;23;20377;-95
2023/10/22 00:05:40;;;;;;;4.00;0.43;;;13.40;99.90;;;;;;6133788;23;20837;-94
2023/10/22 00:08:09;;;;;;;5.05;0.57;;;13.30;99.90;;;;;;6135246;23;20374;-94
2023/10/22 00:10:52;;;;;;;5.60;0.52;;;13.00;99.90;;;;;;6133203;23;20371;-95
2023/10/22 00:13:21;;;;;;;6.50;0.43;;;13.50;99.90;;;;;;6135328;23;20384;-96
2023/10/22 00:15:47;;;;;;;4.57;0.30;;;13.70;99.90;;;;;;6137828;23;20421;-94
2023/10/22 00:18:13;;;;;;;5.95;0.45;;;13.60;99.90;;;;;;6130354;23;20370;-94
2023/10/22 00:21:07;;;;;;;4.78;0.50;;;13.30;99.90;;;;;;6133656;23;21205;-95
2023/10/22 00:23:32;;;;;;;2.95;0.30;;;13.20;99.90;;;;;;6115461;23;20437;-94
2023/10/22 00:26:14;;;;;;;4.17;0.40;;;13.90;99.90;;;;;;6142745;23;20416;-95
2023/10/22 00:28:45;;;;;;;3.30;0.30;;;13.30;99.90;;;;;;6142761;23;20404;-94
2023/10/22 00:31:17;;;;;;;4.70;0.35;;;13.50;99.90;;;;;;6141660;23;20369;-96
2023/10/22 00:33:42;;;;;;;4.00;0.25;;;13.60;99.90;;;;;;6132874;23;20385;-93
2023/10/22 00:36:14;;;;;;;4.50;0.40;;;13.30;99.90;;;;;;6135191;23;20361;-96
2023/10/22 00:38:43;;;;;;;3.28;0.45;;;13.30;99.90;;;;;;6136640;23;20874;-96
2023/10/22 00:41:26;;;;;;;3.30;0.30;;;13.20;99.90;;;;;;6134710;23;20396;-95
2023/10/22 00:43:52;;;;;;;4.07;0.30;;;13.20;99.90;;;;;;6140329;23;20378;-93
2023/10/22 00:46:23;;;;;;;3.60;0.40;;;13.20;99.90;;;;;;6139228;23;20430;-94
2023/10/22 00:48:58;;;;;;;4.73;0.40;;;13.60;99.90;;;;;;6140765;23;20381;-95
2023/10/22 00:51:30;;;;;;;4.27;0.60;;;13.30;99.90;;;;;;6142631;23;20370;-96
2023/10/22 00:54:14;;;;;;;3.83;0.40;;;13.30;99.90;;;;;;6152162;23;20417;-95
2023/10/22 00:56:46;;;;;;;3.72;0.30;;;13.60;99.90;;;;;;6169272;23;20377;-96
2023/10/22 00:59:15;;;;;;;4.60;0.45;;;13.30;99.90;;;;;;6136858;23;20882;-96
2023/10/22 01:01:47;;;;;;;2.20;0.20;;;13.30;99.90;;;;;;6144785;23;20381;-95
2023/10/22 01:04:12;;;;;;;4.65;0.40;;;13.00;99.90;;;;;;6138883;23;20345;-95
2023/10/22 01:10:03;;;;;;;6.43;0.50;;;13.40;99.90;;;;;;6046636;23;20379;-96
2023/10/22 01:12:59;;;;;;;5.83;0.40;;;13.30;99.90;;;;;;6198346;23;20382;-95
2023/10/22 01:15:26;;;;;;;3.75;0.22;;;13.40;99.90;;;;;;6132308;23;20371;-96
2023/10/22 01:18:09;;;;;;;3.63;0.20;;;13.20;99.90;;;;;;6198381;23;20363;-95
2023/10/22 01:20:37;;;;;;;4.53;0.30;;;13.30;99.90;;;;;;6165727;23;20803;-96
2023/10/22 01:23:22;;;;;;;4.25;0.30;;;13.10;99.90;;;;;;6171174;23;20394;-95
2023/10/22 01:25:57;;;;;;;5.80;0.60;;;13.10;99.90;;;;;;6174874;23;20388;-95
2023/10/22 01:31:42;;;;;;;4.28;0.50;;;13.00;99.90;;;;;;6194166;23;20456;-96
2023/10/22 01:34:17;;;;;;;6.43;0.70;;;12.70;99.90;;;;;;6199576;23;20376;-96
2023/10/22 01:36:45;;;;;;;4.68;0.70;;;12.70;99.90;;;;;;6197893;23;20379;-95
2023/10/22 01:39:59;;;;;;;7.63;0.90;;;12.60;99.90;;;;;;6216610;23;20371;-95
2023/10/22 01:42:35;;;;;;;6.53;1.17;;;12.40;99.90;;;;;;6197159;23;20372;-95
2023/10/22 01:45:28;;;;;;;6.90;1.13;;;12.30;99.90;;;;;;6192513;23;20368;-94
2023/10/22 01:47:57;;;;;;;6.97;1.10;;;12.30;99.90;;;;;;6193763;23;20402;-96
2023/10/22 01:50:40;;;;;;;7.20;1.20;;;12.40;99.90;;;;;;6194872;23;20391;-94
2023/10/22 01:53:27;;;;;;;4.65;1.33;;;12.20;99.90;;;;;;6191575;23;20380;-93
2023/10/22 01:55:58;;;;;;;4.65;1.30;;;12.10;99.90;;;;;;6195992;23;20376;-96
2023/10/22 01:58:24;;;;;;;5.35;1.10;;;12.10;99.90;;;;;;6189105;23;20364;-94
2023/10/22 02:01:08;;;;;;;6.40;1.35;;;12.40;99.90;;;;;;6189296;23;20521;-95
2023/10/22 02:03:37;;;;;;;5.07;1.10;;;12.40;99.90;;;;;;6188069;23;20376;-95
2023/10/22 02:06:13;;;;;;;5.88;1.40;;;12.10;99.90;;;;;;6190523;23;20368;-95
2023/10/22 02:08:40;;;;;;;6.18;1.52;;;11.90;99.90;;;;;;6190613;23;20387;-93
2023/10/22 02:11:13;;;;;;;4.90;1.60;;;12.10;99.90;;;;;;6187737;23;20371;-95
2023/10/22 02:13:42;;;;;;;5.10;1.30;;;12.00;99.90;;;;;;6189021;23;20372;-96
2023/10/22 02:16:08;;;;;;;5.82;1.60;;;12.70;99.90;;;;;;6138784;23;20376;-95
2023/10/22 02:18:34;;;;;;;4.93;2.10;;;12.00;99.90;;;;;;6184901;23;20368;-95
2023/10/22 02:21:02;;;;;;;6.43;1.93;;;12.30;99.90;;;;;;6165750;23;20478;-96
2023/10/22 02:23:28;;;;;;;3.65;1.80;;;12.10;99.90;;;;;;6150355;23;20395;-94
2023/10/22 02:25:54;;;;;;;5.35;2.33;;;12.40;99.90;;;;;;6126499;23;20375;-93
2023/10/22 02:28:20;;;;;;;6.13;2.72;;;12.00;99.90;;;;;;6147325;23;20378;-93
2023/10/22 02:30:50;;;;;;;6.40;2.55;;;12.50;99.90;;;;;;6150621;23;20370;-94
2023/10/22 02:33:17;;;;;;;6.00;2.97;;;12.30;99.90;;;;;;6150056;23;20371;-95
2023/10/22 02:35:45;;;;;;;5.20;2.30;;;11.90;99.90;;;;;;6148618;23;20371;-94
2023/10/22 02:38:14;;;;;;;6.13;2.63;;;12.20;99.90;;;;;;6149196;23;20703;-94
2023/10/22 02:40:40;;;;;;;6.28;2.50;;;12.40;99.90;;;;;;6147458;23;20391;-92
2023/10/22 02:43:06;;;;;;;5.72;2.30;;;12.10;99.90;;;;;;6125601;23;20367;-94
2023/10/22 02:45:32;;;;;;;6.90;2.53;;;11.90;99.90;;;;;;6123172;23;20431;-94
2023/10/22 02:47:59;;;;;;;6.20;2.50;;;12.30;99.90;;;;;;6124944;23;20383;-94
2023/10/22 02:50:26;;;;;;;5.57;1.80;;;12.30;99.90;;;;;;6149447;23;20579;-95
2023/10/22 02:52:52;;;;;;;4.70;2.17;;;12.00;99.90;;;;;;6149261;23;20502;-93
2023/10/22 02:55:18;;;;;;;8.83;2.70;;;12.30;99.90;;;;;;6124393;23;20411;-92
2023/10/22 02:57:44;;;;;;;6.70;2.70;;;12.30;99.90;;;;;;6123704;23;20919;-93
2023/10/22 03:00:10;;;;;;;7.28;2.25;;;12.10;99.90;;;;;;6148734;23;20484;-94
2023/10/22 03:02:37;;;;;;;4.70;1.93;;;12.10;99.90;;;;;;6123225;23;20426;-92
2023/10/22 03:05:03;;;;;;;4.85;1.98;;;12.00;99.90;;;;;;6150196;23;20379;-93
2023/10/22 03:07:29;;;;;;;6.87;2.60;;;12.10;99.90;;;;;;6147323;23;20438;-93
2023/10/22 03:09:55;;;;;;;5.20;2.20;;;12.50;99.90;;;;;;6149403;23;20680;-93
2023/10/22 03:12:21;;;;;;;4.80;2.17;;;12.20;99.90;;;;;;6123674;23;20745;-93
2023/10/22 03:14:48;;;;;;;6.97;2.78;;;13.10;99.90;;;;;;6123458;23;20840;-93
2023/10/22 03:17:13;;;;;;;4.85;2.13;;;12.30;99.90;;;;;;6099716;23;20433;-93
2023/10/22 03:19:39;;;;;;;3.43;2.30;;;12.60;99.90;;;;;;6147652;23;20399;-91
2023/10/22 03:22:05;;;;;;;6.07;3.00;;;11.70;99.90;;;;;;6124690;23;20423;-95
2023/10/22 03:24:30;;;;;;;5.63;2.90;;;12.50;99.90;;;;;;6170931;23;20755;-95
2023/10/22 03:27:04;;;;;;;7.33;2.93;;;12.30;99.90;;;;;;6178603;23;20444;-94
2023/10/22 03:29:30;;;;;;;4.75;2.92;;;12.50;99.90;;;;;;6178970;23;20416;-93
2023/10/22 03:31:56;;;;;;;6.20;3.15;;;12.70;99.90;;;;;;6180243;23;20698;-93
2023/10/22 03:34:22;;;;;;;6.43;2.67;;;12.60;99.90;;;;;;6177335;23;20403;-94
2023/10/22 03:36:51;;;;;;;6.22;3.13;;;12.20;99.90;;;;;;6177527;23;20365;-93
2023/10/22 03:39:19;;;;;;;5.80;2.90;;;12.40;99.90;;;;;;6179039;23;20705;-94
2023/10/22 03:41:45;;;;;;;5.03;2.80;;;12.10;99.90;;;;;;6177091;23;20392;-95
2023/10/22 03:44:11;;;;;;;5.07;2.72;;;12.50;99.90;;;;;;6180602;23;21016;-96
2023/10/22 03:46:36;;;;;;;4.60;2.90;;;12.20;99.90;;;;;;6179581;23;20380;-94
2023/10/22 03:49:02;;;;;;;6.40;3.40;;;12.20;99.90;;;;;;6183346;23;20377;-94
2023/10/22 03:51:30;;;;;;;5.93;3.47;;;12.10;99.90;;;;;;6178929;23;20452;-96
2023/10/22 03:53:57;;;;;;;6.30;3.40;;;12.10;99.90;;;;;;6180112;23;20370;-94
2023/10/22 03:56:26;;;;;;;5.18;3.20;;;12.20;99.90;;;;;;6179970;23;20397;-94
2023/10/22 03:58:52;;;;;;;5.55;3.40;;;12.20;99.90;;;;;;6178898;23;20400;-94
2023/10/22 04:01:18;;;;;;;5.00;3.03;;;12.20;99.90;;;;;;6180617;23;20874;-93
2023/10/22 04:03:44;;;;;;;6.97;3.40;;;12.20;99.90;;;;;;6178942;23;20369;-94
2023/10/22 04:06:09;;;;;;;6.67;3.40;;;12.20;99.90;;;;;;6180555;23;20370;-93
2023/10/22 04:08:35;;;;;;;4.30;2.80;;;12.50;99.90;;;;;;6179821;23;20396;-94
2023/10/22 04:11:01;;;;;;;4.75;2.95;;;12.20;99.90;;;;;;6180246;23;20377;-94
2023/10/22 04:13:27;;;;;;;5.72;3.40;;;12.70;99.90;;;;;;6179570;23;20373;-94
2023/10/22 04:15:57;;;;;;;5.22;3.30;;;12.20;99.90;;;;;;6179301;23;20401;-94
2023/10/22 04:18:25;;;;;;;5.90;3.20;;;12.30;99.90;;;;;;6180422;23;20702;-94
2023/10/22 04:20:50;;;;;;;5.43;3.25;;;12.30;99.90;;;;;;6179260;23;20932;-95
2023/10/22 04:23:17;;;;;;;5.20;3.17;;;12.30;99.90;;;;;;6180235;23;20421;-95
2023/10/22 04:25:44;;;;;;;6.18;3.22;;;12.30;99.90;;;;;;6178602;23;20369;-95
2023/10/22 04:28:10;;;;;;;4.50;3.13;;;12.30;99.90;;;;;;6180198;23;20373;-95
2023/10/22 04:30:37;;;;;;;4.68;2.97;;;12.30;99.90;;;;;;6179209;23;20771;-95
2023/10/22 04:33:10;;;;;;;3.70;2.80;;;12.50;99.90;;;;;;6178252;23;20435;-95
2023/10/22 04:35:38;;;;;;;4.47;3.10;;;12.40;99.90;;;;;;6179792;23;20904;-94
2023/10/22 04:38:04;;;;;;;4.85;2.90;;;12.90;99.90;;;;;;6178580;23;20397;-94
2023/10/22 04:40:34;;;;;;;5.20;3.37;;;12.40;99.90;;;;;;6154597;23;20456;-96
2023/10/22 04:43:00;;;;;;;5.20;3.55;;;12.70;99.90;;;;;;6153647;23;20464;-94
2023/10/22 04:45:26;;;;;;;7.07;4.30;;;12.40;99.90;;;;;;6179942;23;20396;-94
2023/10/22 04:47:55;;;;;;;7.00;5.00;;;12.40;99.90;;;;;;6178902;23;20456;-94
2023/10/22 04:50:21;;;;;;;8.25;6.63;;;12.50;99.90;;;;;;6179335;23;20760;-94
2023/10/22 04:52:47;;;;;;;11.77;7.15;;;12.50;99.90;;;;;;6179165;23;20374;-94
2023/10/22 04:55:13;;;;;;;10.50;8.40;;;12.50;99.90;;;;;;6178727;23;20400;-95
2023/10/22 04:57:39;;;;;;;10.68;9.32;;;12.50;99.90;;;;;;6179456;23;20842;-95
2023/10/22 05:00:09;;;;;;;16.30;11.27;;;12.60;99.90;;;;;;6178216;23;20400;-95
2023/10/22 05:02:36;;;;;;;16.83;12.40;;;12.60;99.90;;;;;;6179839;23;20460;-95
2023/10/22 05:05:02;;;;;;;20.30;12.95;;;12.60;99.90;;;;;;6178786;23;20380;-96
2023/10/22 05:07:28;;;;;;;21.23;14.20;;;12.60;99.90;;;;;;6179620;23;20584;-94
2023/10/22 05:09:54;;;;;;;29.27;16.55;;;12.70;99.90;;;;;;6179281;23;20452;-95
2023/10/22 05:12:19;;;;;;;22.73;14.68;;;12.70;99.90;;;;;;6178451;23;20373;-95
2023/10/22 05:14:45;;;;;;;21.60;15.10;;;12.70;99.90;;;;;;6180069;23;20374;-95
2023/10/22 05:17:11;;;;;;;23.90;16.75;;;12.70;99.90;;;;;;6178387;23;20888;-94
2023/10/22 05:19:37;;;;;;;26.08;16.67;;;12.70;99.90;;;;;;6179635;23;20460;-95
2023/10/22 05:22:05;;;;;;;25.23;17.63;;;12.70;99.90;;;;;;6152802;23;20449;-95
2023/10/22 05:24:32;;;;;;;27.98;18.17;;;12.80;99.90;;;;;;6153974;23;20469;-95
2023/10/22 05:26:58;;;;;;;30.50;18.33;;;12.80;99.90;;;;;;6153939;23;20374;-95
2023/10/22 05:29:24;;;;;;;22.77;17.17;;;13.10;99.90;;;;;;6153779;23;20528;-96
2023/10/22 05:31:54;;;;;;;28.60;18.43;;;12.80;99.90;;;;;;6153937;23;20730;-96
2023/10/22 05:34:19;;;;;;;32.65;18.52;;;12.80;99.90;;;;;;6153433;23;20376;-95
2023/10/22 05:36:48;;;;;;;22.80;16.10;;;13.10;99.90;;;;;;6130779;23;20377;-95
2023/10/22 05:39:13;;;;;;;26.77;16.23;;;12.90;99.90;;;;;;6128407;23;20457;-96
2023/10/22 05:41:57;;;;;;;19.88;11.60;;;12.90;99.90;;;;;;6159142;23;20397;-96
2023/10/22 05:44:24;;;;;;;5.53;3.50;;;12.80;99.90;;;;;;6148183;23;20373;-94
2023/10/22 05:46:53;;;;;;;4.50;2.60;;;12.80;99.90;;;;;;6147421;23;20400;-95
2023/10/22 05:49:25;;;;;;;4.57;2.38;;;12.80;99.90;;;;;;6170761;23;20401;-96
2023/10/22 05:51:51;;;;;;;4.50;2.30;;;12.70;99.90;;;;;;6172302;23;20409;-94
2023/10/22 05:54:17;;;;;;;7.47;2.20;;;12.60;99.90;;;;;;6162450;23;20381;-96
2023/10/22 05:56:43;;;;;;;7.55;2.80;;;12.50;99.90;;;;;;6155488;23;20447;-94
2023/10/22 05:59:15;;;;;;;11.50;3.03;;;12.50;99.90;;;;;;6156099;23;20369;-96
2023/10/22 06:01:41;;;;;;;10.05;2.80;;;12.30;99.90;;;;;;6128109;23;20394;-95
2023/10/22 06:04:08;;;;;;;9.45;2.90;;;12.50;99.90;;;;;;6156334;23;20404;-93
2023/10/22 06:06:34;;;;;;;13.55;3.53;;;12.50;99.90;;;;;;6160065;23;20366;-95
2023/10/22 06:09:06;;;;;;;12.30;3.38;;;12.60;99.90;;;;;;6160560;23;20377;-96
2023/10/22 06:11:34;;;;;;;16.23;4.40;;;12.40;99.90;;;;;;6159378;23;20424;-96
2023/10/22 06:14:02;;;;;;;15.20;4.28;;;12.10;99.90;;;;;;6106558;23;20378;-96
2023/10/22 06:16:28;;;;;;;14.77;3.92;;;12.10;99.90;;;;;;6156567;23;20370;-96
2023/10/22 06:18:53;;;;;;;14.80;4.18;;;11.60;99.90;;;;;;6158815;23;20459;-95
2023/10/22 06:21:19;;;;;;;15.43;4.23;;;12.40;99.90;;;;;;6152504;23;20399;-93
2023/10/22 06:23:45;;;;;;;18.48;4.38;;;12.80;99.90;;;;;;6167572;23;20744;-93
2023/10/22 06:26:11;;;;;;;16.98;4.80;;;12.20;99.90;;;;;;6182215;23;20450;-95
2023/10/22 06:28:43;;;;;;;10.77;2.85;;;12.20;99.90;;;;;;6185599;23;20817;-95
2023/10/22 06:31:11;;;;;;;9.45;3.38;;;12.00;99.90;;;;;;6195353;23;20363;-95
2023/10/22 06:33:52;;;;;;;7.80;2.90;;;12.00;99.90;;;;;;6170998;23;20372;-96
2023/10/22 06:36:18;;;;;;;11.40;3.33;;;12.20;99.90;;;;;;6194432;23;20392;-95
2023/10/22 06:38:50;;;;;;;13.50;4.07;;;11.90;99.90;;;;;;6164862;23;20372;-96
2023/10/22 06:41:25;;;;;;;11.13;3.78;;;12.00;99.90;;;;;;6190995;23;20398;-95
2023/10/22 06:46:33;;;;;;;8.32;3.95;;;11.90;99.90;;;;;;6253876;22;20397;-96
2023/10/22 06:49:07;;;;;;;9.48;3.97;;;12.20;99.90;;;;;;6198962;23;20372;-96
2023/10/22 06:51:37;;;;;;;11.85;4.40;;;11.90;99.90;;;;;;6199298;23;20405;-96
2023/10/22 06:54:09;;;;;;;18.30;5.60;;;11.90;99.90;;;;;;6203420;23;20396;-96
2023/10/22 06:56:35;;;;;;;12.38;5.25;;;12.00;99.90;;;;;;6205095;23;20476;-96
2023/10/22 06:59:17;;;;;;;12.85;5.00;;;12.10;99.90;;;;;;6204307;23;20370;-96
2023/10/22 07:04:32;;;;;;;16.33;6.50;;;11.90;99.90;;;;;;6194354;23;20405;-96
2023/10/22 07:06:58;;;;;;;14.25;6.88;;;11.90;99.90;;;;;;6133053;23;20381;-95
2023/10/22 07:09:29;;;;;;;18.08;6.70;;;11.90;99.90;;;;;;6138599;23;20405;-96
2023/10/22 07:11:54;;;;;;;15.80;7.65;;;11.70;99.90;;;;;;6133807;23;20373;-96
2023/10/22 07:14:23;;;;;;;17.45;7.80;;;11.90;99.90;;;;;;6130107;23;20447;-96
2023/10/22 07:16:49;;;;;;;12.80;6.50;;;12.30;99.90;;;;;;6133389;23;20380;-96
2023/10/22 07:19:15;;;;;;;16.40;6.72;;;12.10;99.90;;;;;;6132719;23;20369;-95
2023/10/22 07:21:43;;;;;;;21.73;8.30;;;11.90;99.90;;;;;;6129872;23;20719;-96
2023/10/22 07:24:09;;;;;;;17.90;7.50;;;11.90;99.90;;;;;;6129990;23;20887;-94
2023/10/22 07:26:35;;;;;;;17.17;7.97;;;12.40;99.90;;;;;;6132494;23;20373;-96
2023/10/22 07:29:01;;;;;;;24.73;10.43;;;12.20;99.90;;;;;;6129893;23;20451;-95
2023/10/22 07:31:26;;;;;;;17.70;7.50;;;12.10;99.90;;;;;;6133140;23;20376;-95
2023/10/22 07:33:52;;;;;;;18.83;8.87;;;11.70;99.90;;;;;;6127825;23;20874;-95
2023/10/22 07:36:20;;;;;;;20.50;7.82;;;12.40;99.90;;;;;;6129205;23;20729;-96
2023/10/22 07:38:46;;;;;;;14.32;7.10;;;12.00;99.90;;;;;;6126816;23;20369;-94
2023/10/22 07:41:16;;;;;;;19.00;8.35;;;12.00;99.90;;;;;;6128531;23;20396;-96
2023/10/22 07:43:48;;;;;;;18.52;8.15;;;12.20;99.90;;;;;;6129865;23;20376;-96
2023/10/22 07:46:17;;;;;;;17.83;7.60;;;12.20;99.90;;;;;;6126151;23;20373;-96
2023/10/22 07:48:43;;;;;;;16.58;7.43;;;12.30;99.90;;;;;;6129973;23;20405;-96
2023/10/22 07:51:16;;;;;;;16.92;7.47;;;12.30;99.90;;;;;;6129049;23;20380;-94
2023/10/22 07:53:43;;;;;;;17.52;6.80;;;12.00;99.90;;;;;;6128658;23;20378;-94
2023/10/22 07:59:00;;;;;;;14.07;6.13;;;12.10;99.90;;;;;;6181019;23;20377;-96
2023/10/22 08:01:27;;;;;;;15.07;7.00;;;12.30;99.90;;;;;;6129186;23;20415;-95
2023/10/22 08:04:02;;;;;;;10.45;4.88;;;12.20;99.90;;;;;;6132885;23;20443;-95
2023/10/22 08:06:35;;;;;;;10.93;4.80;;;12.10;99.90;;;;;;6131827;23;20369;-95
2023/10/22 08:09:14;;;;;;;14.88;5.40;;;12.20;99.90;;;;;;6128104;23;20401;-95
2023/10/22 08:11:40;;;;;;;10.20;3.33;;;11.90;99.90;;;;;;6129533;23;20369;-93
2023/10/22 08:14:13;;;;;;;10.13;3.97;;;12.30;99.90;;;;;;6134262;23;20369;-95
2023/10/22 08:16:59;;;;;;;10.80;3.92;;;12.20;99.90;;;;;;6138910;23;20373;-96
2023/10/22 08:22:16;;;;;;;9.20;3.10;;;12.20;99.90;;;;;;6176921;23;20396;-96
2023/10/22 08:25:03;;;;;;;8.93;3.03;;;12.20;99.90;;;;;;6160377;23;20438;-95
2023/10/22 08:28:09;;;;;;;9.93;2.70;;;12.30;99.90;;;;;;6157891;23;20682;-96
2023/10/22 08:30:35;;;;;;;12.13;2.38;;;12.40;99.90;;;;;;6160127;23;20438;-95
2023/10/22 08:33:01;;;;;;;7.90;1.93;;;12.40;99.90;;;;;;6157032;23;20387;-96
2023/10/22 08:35:29;;;;;;;7.85;1.48;;;12.50;99.90;;;;;;6159172;23;20364;-94
2023/10/22 08:37:57;;;;;;;8.02;1.98;;;12.60;99.90;;;;;;6159802;23;20386;-96
2023/10/22 08:40:24;;;;;;;7.10;2.17;;;12.60;99.90;;;;;;6158398;23;20976;-94
2023/10/22 08:42:55;;;;;;;9.80;2.80;;;12.60;99.90;;;;;;6156094;23;20387;-94
2023/10/22 08:45:22;;;;;;;9.23;3.33;;;12.70;99.90;;;;;;6157682;23;20374;-95
2023/10/22 08:47:48;;;;;;;9.10;1.80;;;12.70;99.90;;;;;;6164736;23;20380;-96
2023/10/22 08:50:44;;;;;;;;;;;;;;;;;;;;;
2023/10/22 08:53:44;;;;;;;;;;;;;;;;;;;;;
2023/10/22 08:56:46;;;;;;;6.05;1.00;;;12.80;99.90;;;;;;6127531;23;20419;-95
2023/10/22 08:59:19;;;;;;;4.55;0.85;;;12.80;99.90;;;;;;6112170;23;20442;-94
2023/10/22 09:01:49;;;;;;;6.43;0.83;;;12.80;99.90;;;;;;6194883;23;20886;-95
2023/10/22 09:04:23;;;;;;;4.97;0.60;;;13.00;99.90;;;;;;6190682;23;20854;-96
2023/10/22 09:06:53;;;;;;;6.32;0.77;;;12.90;99.90;;;;;;6188592;23;20610;-94
2023/10/22 09:09:37;;;;;;;7.20;0.80;;;12.90;99.90;;;;;;6192858;23;20613;-95
2023/10/22 09:12:13;;;;;;;3.83;0.50;;;13.00;99.90;;;;;;6193517;22;20851;-96
2023/10/22 09:14:59;;;;;;;5.55;0.60;;;13.00;99.90;;;;;;6190563;23;20561;-96
2023/10/22 09:17:25;;;;;;;4.35;0.50;;;13.10;99.90;;;;;;6195395;23;20398;-94
2023/10/22 09:20:41;;;;;;;2.83;0.20;;;13.30;99.90;;;;;;6098895;23;20386;-96
2023/10/22 09:24:01;;;;;;;3.63;0.30;;;13.50;99.90;;;;;;6072196;23;20378;-96
2023/10/22 09:27:14;;;;;;;3.60;0.20;;;13.60;99.90;;;;;;6012516;23;20380;-95
2023/10/22 09:30:29;;;;;;;;;;;;;;;;;;;;;
2023/10/22 09:32:58;;;;;;;5.38;0.50;;;13.90;99.90;;;;;;6082700;23;20377;-95
2023/10/22 09:35:36;;;;;;;2.30;0.30;;;14.10;99.90;;;;;;6071242;23;20379;-95
2023/10/22 09:38:05;;;;;;;2.90;0.20;;;14.00;99.90;;;;;;6134391;23;20411;-95
2023/10/22 09:40:34;;;;;;;1.80;0.30;;;13.90;99.90;;;;;;6187592;23;20392;-94
2023/10/22 09:43:03;;;;;;;1.75;0.43;;;14.20;99.90;;;;;;6187394;23;20368;-96
2023/10/22 09:45:30;;;;;;;4.05;0.30;;;14.30;99.90;;;;;;6187799;23;20382;-96
2023/10/22 09:48:01;;;;;;;2.22;0.20;;;14.20;99.90;;;;;;6183679;23;20426;-95
2023/10/22 09:50:31;;;;;;;2.65;0.20;;;14.30;99.90;;;;;;6185932;23;20375;-94
2023/10/22 09:52:59;;;;;;;2.25;0.20;;;14.50;99.90;;;;;;6184014;23;20375;-96
2023/10/22 09:55:36;;;;;;;2.17;0.28;;;14.50;99.90;;;;;;6188395;23;20368;-94
2023/10/22 09:59:07;;;;;;;2.53;0.20;;;14.60;99.90;;;;;;6196530;23;20371;-96
2023/10/22 10:01:34;;;;;;;3.35;0.40;;;14.70;99.90;;;;;;6166004;23;20394;-94
2023/10/22 10:08:36;;;;;;;3.67;0.40;;;15.20;99.90;;;;;;6069861;23;20366;-95
2023/10/22 10:14:22;;;;;;;2.30;0.20;;;15.60;99.90;;;;;;6144987;23;20377;-94
2023/10/22 10:17:00;;;;;;;2.20;0.20;;;15.70;99.90;;;;;;6158032;23;20385;-96
2023/10/22 10:20:12;;;;;;;2.37;0.30;;;15.40;99.90;;;;;;6140058;23;20377;-96
2023/10/22 10:22:46;;;;;;;2.20;0.20;;;15.10;99.90;;;;;;6131248;23;20415;-95
2023/10/22 10:25:46;;;;;;;2.83;0.20;;;14.80;99.90;;;;;;6135754;23;20381;-96
2023/10/22 10:28:13;;;;;;;4.28;0.40;;;14.50;99.90;;;;;;6024470;23;20811;-96
2023/10/22 10:30:44;;;;;;;1.75;0.20;;;14.20;99.90;;;;;;6064214;23;20397;-94
2023/10/22 10:33:12;;;;;;;1.95;0.20;;;14.00;99.90;;;;;;6162977;23;20428;-94
2023/10/22 10:35:45;;;;;;;2.25;0.20;;;13.90;99.90;;;;;;6126719;23;20377;-94
2023/10/22 10:38:14;;;;;;;3.08;0.20;;;14.00;99.90;;;;;;6154595;23;20442;-95
2023/10/22 10:40:56;;;;;;;3.15;0.20;;;13.90;99.90;;;;;;6185022;23;20402;-95
2023/10/22 10:44:03;;;;;;;1.70;0.20;;;13.60;99.90;;;;;;6183134;23;22408;-95
2023/10/22 10:46:49;;;;;;;3.28;0.20;;;13.60;99.90;;;;;;6190743;23;20372;-95
2023/10/22 10:49:56;;;;;;;3.22;0.30;;;13.40;99.90;;;;;;6193939;23;20382;-96
2023/10/22 10:53:15;;;;;;;2.40;0.40;;;13.80;99.90;;;;;;6189880;23;20374;-96
2023/10/22 10:55:41;;;;;;;2.87;0.30;;;13.70;99.90;;;;;;6190041;23;20391;-96
2023/10/22 11:01:00;;;;;;;1.70;0.20;;;13.70;99.90;;;;;;6215987;23;20404;-95
2023/10/22 11:03:35;;;;;;;2.40;0.20;;;14.00;99.90;;;;;;6188238;23;20422;-96
2023/10/22 11:06:44;;;;;;;2.97;0.20;;;14.10;99.90;;;;;;6188194;23;20385;-95
2023/10/22 11:09:10;;;;;;;1.55;0.20;;;14.20;99.90;;;;;;6183090;23;20402;-95
2023/10/22 11:11:35;;;;;;;2.95;0.20;;;14.30;99.90;;;;;;6184281;23;20364;-92
2023/10/22 11:14:12;;;;;;;1.60;0.20;;;14.30;99.90;;;;;;6186604;23;20450;-93
2023/10/22 11:17:11;;;;;;;2.70;0.20;;;14.60;99.90;;;;;;6194008;23;20370;-94
2023/10/22 11:19:40;;;;;;;2.38;0.30;;;15.00;99.90;;;;;;6189633;23;20371;-95
2023/10/22 11:22:09;;;;;;;2.70;0.20;;;15.20;99.90;;;;;;6189208;23;20373;-94
2023/10/22 11:24:35;;;;;;;1.20;0.20;;;15.40;99.90;;;;;;6193023;23;20372;-93
2023/10/22 11:27:04;;;;;;;1.90;0.10;;;15.60;99.90;;;;;;6187218;23;20374;-94
2023/10/22 11:29:38;;;;;;;1.40;0.10;;;15.60;99.90;;;;;;6190030;23;20502;-93
2023/10/22 11:32:06;;;;;;;1.57;0.10;;;15.90;99.90;;;;;;6185918;23;20369;-94
2023/10/22 11:34:32;;;;;;;2.88;0.10;;;15.50;99.90;;;;;;6191475;23;20406;-94
2023/10/22 11:36:59;;;;;;;0.80;0.10;;;15.40;99.90;;;;;;6187971;23;20385;-95
2023/10/22 11:39:34;;;;;;;1.63;0.10;;;15.20;99.90;;;;;;6188482;23;20427;-94
2023/10/22 11:42:07;;;;;;;1.02;0.10;;;15.10;99.90;;;;;;6216179;23;20397;-93
2023/10/22 11:44:34;;;;;;;1.47;0.10;;;15.20;99.90;;;;;;6186173;23;20369;-93
2023/10/22 11:47:02;;;;;;;1.25;0.10;;;15.40;99.90;;;;;;6193994;23;20470;-94
2023/10/22 11:49:28;;;;;;;0.80;0.10;;;15.40;97.60;;;;;;6188429;23;20368;-93
2023/10/22 11:51:54;;;;;;;1.10;0.10;;;15.40;99.90;;;;;;6193360;23;20864;-94
2023/10/22 11:54:41;;;;;;;1.45;0.10;;;15.50;99.50;;;;;;6188338;23;20401;-93
2023/10/22 11:57:37;;;;;;;0.77;0.00;;;15.70;95.80;;;;;;6190429;23;20377;-96
2023/10/22 12:00:06;;;;;;;0.52;0.10;;;15.60;79.90;;;;;;6187525;23;20764;-93
2023/10/22 12:02:32;;;;;;;0.57;0.10;;;15.70;92.10;;;;;;6188350;23;20909;-92
2023/10/22 12:04:58;;;;;;;0.65;0.10;;;15.60;99.80;;;;;;6192025;23;20366;-96
2023/10/22 12:07:23;;;;;;;1.95;0.20;;;15.80;89.70;;;;;;6188317;23;20362;-94
2023/10/22 12:09:49;;;;;;;0.60;0.10;;;15.60;99.40;;;;;;6190385;23;20405;-95
2023/10/22 12:12:15;;;;;;;2.92;0.17;;;15.60;98.10;;;;;;6188536;23;20834;-93
2023/10/22 12:14:42;;;;;;;2.65;0.40;;;15.30;99.90;;;;;;6189482;23;20386;-92
2023/10/22 12:17:08;;;;;;;1.85;0.10;;;16.00;96.30;;;;;;6214105;23;20691;-93
2023/10/22 12:19:34;;;;;;;1.30;0.10;;;16.00;99.50;;;;;;6191056;23;20389;-93
2023/10/22 12:22:00;;;;;;;1.50;0.10;;;15.90;94.10;;;;;;6193250;23;20394;-92
2023/10/22 12:24:34;;;;;;;1.98;0.15;;;16.20;86.10;;;;;;6188306;23;20382;-95
2023/10/22 12:27:00;;;;;;;2.00;0.10;;;15.80;74.50;;;;;;6190030;23;20370;-94
2023/10/22 12:29:26;;;;;;;1.47;0.10;;;15.70;93.20;;;;;;6194042;23;20377;-95
2023/10/22 12:31:52;;;;;;;2.50;0.10;;;15.70;94.20;;;;;;6192392;23;20385;-93
2023/10/22 12:34:18;;;;;;;1.65;0.15;;;15.80;85.20;;;;;;6187230;23;20854;-92
2023/10/22 12:36:44;;;;;;;1.25;0.10;;;15.80;94.00;;;;;;6190238;23;20377;-91
2023/10/22 12:39:10;;;;;;;1.00;0.10;;;15.60;84.90;;;;;;6191579;23;20851;-93
2023/10/22 12:41:45;;;;;;;1.98;0.10;;;15.40;82.10;;;;;;6191095;23;20398;-95
2023/10/22 12:44:17;;;;;;;3.28;0.30;;;15.40;95.40;;;;;;6193309;23;20937;-94
2023/10/22 12:46:42;;;;;;;2.85;0.10;;;15.60;93.50;;;;;;6190062;23;20374;-93
2023/10/22 12:49:11;;;;;;;1.05;0.10;;;15.30;90.30;;;;;;6190976;23;20369;-95
2023/10/22 12:51:37;;;;;;;1.90;0.10;;;15.60;96.10;;;;;;6191240;23;20436;-94
2023/10/22 12:54:04;;;;;;;3.03;0.20;;;15.20;90.20;;;;;;6189104;23;20370;-94
2023/10/22 12:56:32;;;;;;;1.52;0.10;;;15.20;99.90;;;;;;6192397;23;20404;-96
2023/10/22 12:58:58;;;;;;;2.53;0.10;;;15.60;98.40;;;;;;6192871;23;20378;-94
2023/10/22 13:01:25;;;;;;;1.53;0.10;;;15.70;99.90;;;;;;6188789;23;20396;-94
2023/10/22 13:03:50;;;;;;;1.50;0.10;;;16.10;96.40;;;;;;6191505;23;20414;-94
2023/10/22 13:06:19;;;;;;;2.17;0.17;;;15.90;99.90;;;;;;6187761;23;20397;-96
2023/10/22 13:08:45;;;;;;;2.30;0.10;;;16.00;99.90;;;;;;6203803;23;20870;-94
2023/10/22 13:11:14;;;;;;;1.93;0.20;;;16.10;98.30;;;;;;6188407;23;20372;-93
2023/10/22 13:13:39;;;;;;;1.63;0.20;;;16.30;99.90;;;;;;6192064;23;20449;-94
2023/10/22 13:16:05;;;;;;;1.73;0.53;;;16.30;99.90;;;;;;6187323;23;20499;-92
2023/10/22 13:18:31;;;;;;;2.38;0.40;;;16.20;99.90;;;;;;6189838;23;20873;-93
2023/10/22 13:20:56;;;;;;;3.77;0.70;;;16.20;99.90;;;;;;6187376;23;20413;-92
2023/10/22 13:23:22;;;;;;;3.03;0.40;;;16.20;99.30;;;;;;6190451;23;20370;-93
2023/10/22 13:26:00;;;;;;;2.55;0.30;;;16.50;98.10;;;;;;6190588;23;20366;-95
2023/10/22 13:28:25;;;;;;;1.05;0.10;;;16.00;99.90;;;;;;6188643;23;20373;-93
2023/10/22 13:30:51;;;;;;;2.05;0.20;;;16.50;99.90;;;;;;6194632;23;20762;-95
2023/10/22 13:33:17;;;;;;;1.17;0.17;;;16.10;98.40;;;;;;6188502;23;20402;-95
2023/10/22 13:35:42;;;;;;;2.00;0.20;;;16.10;99.90;;;;;;6187660;23;20448;-94
2023/10/22 13:38:11;;;;;;;1.77;0.20;;;16.40;99.90;;;;;;6199499;23;20366;-96